D/T METAR WX W/SPE G/SPE TEMP DEWP FEEL
31/01/23 07:20 EGDY 310720Z 23005KT 9999 FEW010 SCT050 06/05 Q1026 TEMPO 4000 -RADZ BKN008 RMK BLU TEMPO GRN 5.8mph 6°C 5°C 5.3°C
31/01/23 05:50 EGDY 310550Z 22009KT 9999 FEW010 BKN050 06/04 Q1026 BLU 10.4mph 6°C 4°C 5.0°C
30/01/23 12:50 EGDY 301250Z 30016KT 9999 FEW014 SCT050 09/04 Q1027 NOSIG RMK BLU BLU 18.4mph 9°C 4°C 8.0°C
30/01/23 10:50 EGDY 301050Z 28009KT 9999 SCT040 07/04 Q1028 NOSIG RMK BLU BLU 10.4mph 7°C 4°C 6.0°C
30/01/23 10:20 EGDY 301020Z 21003KT 9999 SCT040 06/04 Q1028 NOSIG RMK BLU BLU 3.5mph 6°C 4°C 5.0°C
30/01/23 09:50 EGDY 300950Z 12003KT 9999 SCT040 06/03 Q1027 NOSIG RMK BLU BLU 3.5mph 6°C 3°C 4.7°C
30/01/23 07:50 EGDY 300750Z 29010KT 9999 SCT040 04/03 Q1026 NOSIG RMK BLU BLU 11.5mph 4°C 3°C 2.7°C
30/01/23 06:50 EGDY 300650Z 29009KT 9999 FEW010 BKN035 06/03 Q1025 BLU 10.4mph 6°C 3°C 4.7°C
09/01/23 06:20 EGDY 090620Z AUTO 25008KT 9999 -RA OVC026/// 07/04 Q0997 -RA 9.2mph 7°C 4°C 6.0°C
09/01/23 05:50 EGDY 090550Z 23009KT 9999 -SHRA FEW010 SCT040 07/04 Q0996 BLU -SHRA 10.4mph 7°C 4°C 6.0°C
09/01/23 05:20 EGDY 090520Z AUTO 23008KT 9999 -RA BKN034/// 06/04 Q0996 -RA 9.2mph 6°C 4°C 5.0°C
09/01/23 04:50 EGDY 090450Z 25008KT 9999 -SHRA FEW010 SCT040 06/04 Q0996 BLU -SHRA 9.2mph 6°C 4°C 5.0°C
09/01/23 04:20 EGDY 090420Z AUTO 24006KT 9999 // OVC027/// 06/04 Q0996 6.9mph 6°C 4°C 5.0°C
09/01/23 03:50 EGDY 090350Z AUTO 26011KT 9999 -RA FEW016/// BKN026/// 06/04 Q0995 -RA 12.7mph 6°C 4°C 5.0°C
09/01/23 03:20 EGDY 090320Z AUTO 25009KT 9999 RA SCT027/// SCT082/// 06/05 Q0995 RA 10.4mph 6°C 5°C 5.3°C
09/01/23 02:50 EGDY 090250Z AUTO 24008KT 9999 -RA OVC026/// 07/05 Q0994 -RA 9.2mph 7°C 5°C 6.3°C
09/01/23 02:20 EGDY 090220Z AUTO 23006KT 9999 // OVC024/// 07/05 Q0994 6.9mph 7°C 5°C 6.3°C
09/01/23 01:20 EGDY 090120Z AUTO 25010KT 9999 RA FEW011/// BKN027/// 07/05 Q0993 RA 11.5mph 7°C 5°C 6.3°C
09/01/23 00:50 EGDY 090050Z AUTO 25011KT 2100 RA BKN022/// SCT049/// 07/05 Q0992 RA 12.7mph 7°C 5°C 6.3°C
09/01/23 00:20 EGDY 090020Z AUTO 25008KT 9999 -RA FEW015/// OVC025/// 07/05 Q0992 -RA 9.2mph 7°C 5°C 6.3°C
08/01/23 23:50 EGDY 082350Z AUTO 25009KT 9999 -RA OVC028/// 07/05 Q0991 -RA 10.4mph 7°C 5°C 6.3°C
08/01/23 23:20 EGDY 082320Z AUTO 26012KT 9999 -RA OVC021/// 07/05 Q0991 -RA 13.8mph 7°C 5°C 6.3°C
08/01/23 22:50 EGDY 082250Z AUTO 27011KT 9999 -DZ OVC018/// 07/05 Q0990 -DZ 12.7mph 7°C 5°C 6.3°C
08/01/23 22:20 EGDY 082220Z AUTO 28015KT 9999 RA OVC019/// 07/05 Q0989 RA 17.3mph 7°C 5°C 6.3°C
08/01/23 21:50 EGDY 082150Z AUTO 27018KT 9999 // OVC020/// 07/05 Q0988 20.7mph 7°C 5°C 6.3°C
08/01/23 20:20 EGDY 082020Z AUTO 20012KT 9999 -RA FEW023/// OVC031/// 08/06 Q0987 -RA 13.8mph 8°C 6°C 7.6°C
08/01/23 19:20 EGDY 081920Z AUTO 21016KT 9000 RA BKN021/// SCT088/// BKN100/// 08/05 Q0987 RA 18.4mph 8°C 5°C 7.3°C
08/01/23 18:50 EGDY 081850Z AUTO 19015KT 9999 FEW045/// BKN120/// 08/04 Q0988 17.3mph 8°C 4°C 7.0°C
08/01/23 18:20 EGDY 081820Z AUTO 18009KT 9999 FEW048/// 07/04 Q0988 10.4mph 7°C 4°C 6.0°C
08/01/23 17:50 EGDY 081750Z AUTO 20009KT 9999 NCD 06/03 Q0989 10.4mph 6°C 3°C 4.7°C
08/01/23 17:20 EGDY 081720Z AUTO 19009KT 9999 NCD 06/03 Q0989 10.4mph 6°C 3°C 4.7°C
08/01/23 16:50 EGDY 081650Z AUTO 20008KT 9999 // FEW087/// 06/03 Q0989 9.2mph 6°C 3°C 4.7°C
08/01/23 16:20 EGDY 081620Z AUTO 24004KT 9999 // FEW021/// SCT028/// 07/04 Q0989 4.6mph 7°C 4°C 6.0°C
08/01/23 15:50 EGDY 081550Z AUTO 24012KT 9999 -RA OVC029/// 07/03 Q0989 -RA 13.8mph 7°C 3°C 5.7°C
08/01/23 15:20 EGDY 081520Z AUTO 23006KT 9999 // FEW028/// 08/04 Q0989 6.9mph 8°C 4°C 7.0°C
08/01/23 14:20 EGDY 081420Z AUTO 25010KT 9999 -RA OVC012/// 07/05 Q0989 -RA 11.5mph 7°C 5°C 6.3°C
08/01/23 13:50 EGDY 081350Z AUTO 23011KT 5000 RA FEW020/// SCT039/// 08/05 Q0989 RA 12.7mph 8°C 5°C 7.3°C
08/01/23 13:20 EGDY 081320Z AUTO 22011KT 9999 OVC045/// 09/05 Q0989 12.7mph 9°C 5°C 8.3°C
08/01/23 12:50 EGDY 081250Z AUTO 22009KT 9999 FEW042/// BKN049/// 08/05 Q0989 10.4mph 8°C 5°C 7.3°C
08/01/23 12:20 EGDY 081220Z AUTO 20010KT 9999 // SCT120/// 08/05 Q0989 11.5mph 8°C 5°C 7.3°C
08/01/23 11:50 EGDY 081150Z AUTO 18011KT 9999 // FEW024/// SCT074/// 08/05 Q0989 12.7mph 8°C 5°C 7.3°C
08/01/23 11:20 EGDY 081120Z AUTO 20010KT 9999 RA OVC021/// 08/06 Q0990 RA 11.5mph 8°C 6°C 7.6°C
08/01/23 10:50 EGDY 081050Z AUTO 19015G25KT 9999 -RA BKN018/// SCT045/// BKN094/// 09/06 Q0990 -RA 17.3mph 28.8mph 9°C 6°C 8.6°C
08/01/23 10:20 EGDY 081020Z AUTO 20014KT 9999 // FEW018/// SCT041/// 08/05 Q0991 16.1mph 8°C 5°C 7.3°C
08/01/23 09:50 EGDY 080950Z AUTO 19015KT 9999 // SCT040/// 08/05 Q0991 17.3mph 8°C 5°C 7.3°C
08/01/23 09:20 EGDY 080920Z AUTO 19016KT 9999 // FEW039/// OVC096/// 08/05 Q0991 18.4mph 8°C 5°C 7.3°C
08/01/23 08:50 EGDY 080850Z AUTO 19014KT 9999 -RA SCT020/// SCT051/// 09/06 Q0991 -RA 16.1mph 9°C 6°C 8.6°C
08/01/23 08:20 EGDY 080820Z AUTO 18012KT 9999 FEW024/// OVC130/// 09/06 Q0991 13.8mph 9°C 6°C 8.6°C
08/01/23 07:50 EGDY 080750Z AUTO 17010KT 9999 SCT020/// OVC140/// 08/06 Q0992 11.5mph 8°C 6°C 7.6°C
08/01/23 07:20 EGDY 080720Z AUTO 18011KT 9999 FEW170/// 08/05 Q0992 12.7mph 8°C 5°C 7.3°C
08/01/23 06:50 EGDY 080650Z AUTO 18009KT 9999 NCD 07/05 Q0993 10.4mph 7°C 5°C 6.3°C
08/01/23 06:20 EGDY 080620Z AUTO 20005KT 9999 NCD 06/05 Q0993 5.8mph 6°C 5°C 5.3°C
08/01/23 05:50 EGDY 080550Z AUTO 13002KT 9999 FEW027/// SCT054/// 06/04 Q0994 2.3mph 6°C 4°C 5.0°C
08/01/23 05:20 EGDY 080520Z AUTO 21003KT 9999 SCT025/// BKN052/// 07/04 Q0994 3.5mph 7°C 4°C 6.0°C
08/01/23 04:50 EGDY 080450Z AUTO 21007KT 9999 // NCD 07/04 Q0994 8.1mph 7°C 4°C 6.0°C
08/01/23 04:20 EGDY 080420Z AUTO 20010KT 9999 // FEW050/// 07/05 Q0994 11.5mph 7°C 5°C 6.3°C
08/01/23 03:50 EGDY 080350Z AUTO 21009KT 9999 -RA FEW045/// 08/05 Q0994 -RA 10.4mph 8°C 5°C 7.3°C
08/01/23 03:20 EGDY 080320Z AUTO 19009KT 9999 // NCD 07/04 Q0994 10.4mph 7°C 4°C 6.0°C
08/01/23 02:50 EGDY 080250Z AUTO 20011KT 9999 // FEW075/// SCT093/// 07/04 Q0995 12.7mph 7°C 4°C 6.0°C
08/01/23 02:20 EGDY 080220Z AUTO 20013KT 9999 -RA SCT075/// BKN090/// 08/05 Q0995 -RA 15.0mph 8°C 5°C 7.3°C
08/01/23 01:50 EGDY 080150Z AUTO 20011KT 9999 // FEW092/// 08/04 Q0995 12.7mph 8°C 4°C 7.0°C
08/01/23 01:20 EGDY 080120Z AUTO 21014KT 9999 -RA FEW070/// BKN084/// BKN100/// 09/04 Q0995 -RA 16.1mph 9°C 4°C 8.0°C
08/01/23 00:20 EGDY 080020Z AUTO 21013KT 9999 FEW027/// 09/05 Q0995 15.0mph 9°C 5°C 8.3°C
07/01/23 23:50 EGDY 072350Z AUTO 21012KT 9999 FEW031/// 09/06 Q0995 13.8mph 9°C 6°C 8.6°C
07/01/23 23:20 EGDY 072320Z AUTO 21013KT 9999 // FEW037/// 09/05 Q0995 15.0mph 9°C 5°C 8.3°C
07/01/23 22:50 EGDY 072250Z AUTO 21011KT 9999 // FEW052/// 09/05 Q0996 12.7mph 9°C 5°C 8.3°C
07/01/23 22:20 EGDY 072220Z AUTO 22009KT 9999 FEW051/// 09/05 Q0996 10.4mph 9°C 5°C 8.3°C
07/01/23 21:50 EGDY 072150Z AUTO 21013KT 9999 SCT027/// 09/06 Q0996 15.0mph 9°C 6°C 8.6°C
07/01/23 21:20 EGDY 072120Z AUTO 20009KT 9999 FEW028/// 09/06 Q0996 10.4mph 9°C 6°C 8.6°C
07/01/23 20:50 EGDY 072050Z AUTO 20013KT 9999 SCT030/// 09/05 Q0996 15.0mph 9°C 5°C 8.3°C
07/01/23 20:20 EGDY 072020Z AUTO 20011KT 9999 FEW031/// SCT049/// 09/06 Q0996 12.7mph 9°C 6°C 8.6°C
07/01/23 19:50 EGDY 071950Z AUTO 20010KT 9999 NCD 08/05 Q0996 11.5mph 8°C 5°C 7.3°C
07/01/23 19:20 EGDY 071920Z AUTO 20010KT 9999 FEW069/// 08/05 Q0996 11.5mph 8°C 5°C 7.3°C
07/01/23 18:50 EGDY 071850Z AUTO 20010KT 9999 SCT060/// 07/04 Q0996 11.5mph 7°C 4°C 6.0°C
07/01/23 18:20 EGDY 071820Z AUTO 20011KT 9999 // NCD 07/04 Q0996 12.7mph 7°C 4°C 6.0°C
07/01/23 17:50 EGDY 071750Z AUTO 22009KT 9999 // FEW052/// 07/04 Q0996 10.4mph 7°C 4°C 6.0°C
07/01/23 17:20 EGDY 071720Z AUTO 25012KT 9999 RA BKN023/// SCT046/// 08/05 Q0995 RA 13.8mph 8°C 5°C 7.3°C
07/01/23 16:50 EGDY 071650Z AUTO 22013KT 9999 FEW036/// SCT160/// 09/05 Q0995 15.0mph 9°C 5°C 8.3°C
07/01/23 16:20 EGDY 071620Z AUTO 22012KT 9999 // FEW063/// 09/05 Q0994 13.8mph 9°C 5°C 8.3°C
07/01/23 15:50 EGDY 071550Z AUTO 22012KT 9999 -RA FEW034/// 09/06 Q0994 -RA 13.8mph 9°C 6°C 8.6°C
07/01/23 15:20 EGDY 071520Z AUTO 21014G27KT 3100 RA OVC039/// 09/07 Q0994 RA 16.1mph 31.1mph 9°C 7°C 9.0°C
07/01/23 14:50 EGDY 071450Z AUTO 21018G28KT 7000 RA FEW013/// OVC018/// 09/06 Q0994 RA 20.7mph 32.2mph 9°C 6°C 8.6°C
07/01/23 14:20 EGDY 071420Z AUTO 19017KT 9999 // SCT020/// BKN044/// 11/08 Q0994 19.6mph 11°C 8°C 11.4°C
07/01/23 13:50 EGDY 071350Z AUTO 20014KT 9999 FEW022/// BKN057/// 11/08 Q0994 16.1mph 11°C 8°C 11.4°C
07/01/23 12:50 EGDY 071250Z AUTO 20016KT 9999 // BKN018/// 12/09 Q0995 18.4mph 12°C 9°C 12.8°C
07/01/23 12:20 EGDY 071220Z AUTO 20012KT 9999 // FEW012/// 12/10 Q0995 13.8mph 12°C 10°C 13.3°C
07/01/23 11:50 EGDY 071150Z AUTO 21012KT 3800 -RA OVC012/// 11/10 Q0996 -RA 13.8mph 11°C 10°C 12.3°C
07/01/23 11:20 EGDY 071120Z AUTO 21014KT 9999 RA SCT020/// OVC041/// 11/10 Q0996 RA 16.1mph 11°C 10°C 12.3°C
07/01/23 10:50 EGDY 071050Z AUTO 20017KT 6000 +RA OVC009/// 11/10 Q0996 +RA 19.6mph 11°C 10°C 12.3°C
07/01/23 10:20 EGDY 071020Z AUTO 19019KT 6000 -RA OVC011/// 12/10 Q0996 -RA 21.9mph 12°C 10°C 13.3°C
07/01/23 09:50 EGDY 070950Z AUTO 19025G39KT 9999 RA OVC010/// 11/10 Q0996 RA 28.8mph 44.9mph 11°C 10°C 12.3°C
07/01/23 09:20 EGDY 070920Z AUTO 19024KT 9999 // OVC012/// 12/10 Q0996 27.6mph 12°C 10°C 13.3°C
07/01/23 08:50 EGDY 070850Z AUTO 19023G34KT 9999 DZ OVC010/// 12/10 Q0996 DZ 26.5mph 39.1mph 12°C 10°C 13.3°C
07/01/23 08:20 EGDY 070820Z AUTO 19025G37KT 9999 -RA OVC010/// 12/10 Q0996 -RA 28.8mph 42.6mph 12°C 10°C 13.3°C
07/01/23 07:50 EGDY 070750Z AUTO 18024G34KT 8000 -DZ OVC011/// 11/10 Q0996 -DZ 27.6mph 39.1mph 11°C 10°C 12.3°C
07/01/23 07:20 EGDY 070720Z AUTO 18026G36KT 7000 // OVC011/// 12/10 Q0997 29.9mph 41.4mph 12°C 10°C 13.3°C